sensor_id;sensor_type;location;lat;lon;timestamp;pressure;altitude;pressure_sealevel;temperature;humidity
12969;BME280;6549;53.128;8.182;2023-02-04T00:01:50;102693.72;;;5.13;100.00
12969;BME280;6549;53.128;8.182;2023-02-04T00:04:50;102690.78;;;4.95;100.00
12969;BME280;6549;53.128;8.182;2023-02-04T00:07:50;102688.84;;;4.96;100.00
12969;BME280;6549;53.128;8.182;2023-02-04T00:10:51;102696.06;;;4.87;100.00
12969;BME280;6549;53.128;8.182;2023-02-04T00:13:51;102689.50;;;4.74;100.00
12969;BME280;6549;53.128;8.182;2023-02-04T00:16:51;102698.00;;;4.73;100.00
12969;BME280;6549;53.128;8.182;2023-02-04T00:19:52;102697.25;;;4.67;100.00
12969;BME280;6549;53.128;8.182;2023-02-04T00:22:52;102698.75;;;4.60;100.00
12969;BME280;6549;53.128;8.182;2023-02-04T00:25:52;102694.78;;;4.52;100.00
12969;BME280;6549;53.128;8.182;2023-02-04T00:28:53;102706.56;;;4.47;100.00
12969;BME280;6549;53.128;8.182;2023-02-04T00:31:53;102706.34;;;4.44;100.00
12969;BME280;6549;53.128;8.182;2023-02-04T00:34:53;102713.50;;;4.40;100.00
12969;BME280;6549;53.128;8.182;2023-02-04T00:37:54;102711.06;;;4.38;100.00
12969;BME280;6549;53.128;8.182;2023-02-04T00:40:54;102703.78;;;4.34;100.00
12969;BME280;6549;53.128;8.182;2023-02-04T00:43:54;102715.25;;;4.31;100.00
12969;BME280;6549;53.128;8.182;2023-02-04T00:46:54;102719.69;;;4.27;100.00
12969;BME280;6549;53.128;8.182;2023-02-04T00:49:55;102736.59;;;4.24;100.00
12969;BME280;6549;53.128;8.182;2023-02-04T00:52:55;102740.41;;;4.23;100.00
12969;BME280;6549;53.128;8.182;2023-02-04T00:55:56;102744.25;;;4.22;100.00
12969;BME280;6549;53.128;8.182;2023-02-04T00:58:56;102751.91;;;4.20;100.00
12969;BME280;6549;53.128;8.182;2023-02-04T01:01:56;102762.47;;;4.21;100.00
12969;BME280;6549;53.128;8.182;2023-02-04T01:04:57;102769.03;;;4.20;100.00
12969;BME280;6549;53.128;8.182;2023-02-04T01:07:57;102789.13;;;4.24;100.00
12969;BME280;6549;53.128;8.182;2023-02-04T01:10:57;102787.22;;;4.25;100.00
12969;BME280;6549;53.128;8.182;2023-02-04T01:13:58;102789.69;;;4.21;100.00
12969;BME280;6549;53.128;8.182;2023-02-04T01:16:58;102796.53;;;4.19;100.00
12969;BME280;6549;53.128;8.182;2023-02-04T01:19:59;102804.47;;;4.15;100.00
12969;BME280;6549;53.128;8.182;2023-02-04T01:22:59;102805.84;;;4.13;100.00
12969;BME280;6549;53.128;8.182;2023-02-04T01:25:59;102817.34;;;4.10;100.00
12969;BME280;6549;53.128;8.182;2023-02-04T01:28:59;102823.94;;;4.03;100.00
12969;BME280;6549;53.128;8.182;2023-02-04T01:32:00;102826.16;;;4.01;100.00
12969;BME280;6549;53.128;8.182;2023-02-04T01:35:00;102835.41;;;4.00;100.00
12969;BME280;6549;53.128;8.182;2023-02-04T01:38:00;102829.16;;;4.00;100.00
12969;BME280;6549;53.128;8.182;2023-02-04T01:41:01;102852.53;;;4.01;100.00
12969;BME280;6549;53.128;8.182;2023-02-04T01:44:03;102858.78;;;4.01;100.00
12969;BME280;6549;53.128;8.182;2023-02-04T01:47:03;102864.22;;;4.01;100.00
12969;BME280;6549;53.128;8.182;2023-02-04T01:50:04;102870.75;;;4.00;100.00
12969;BME280;6549;53.128;8.182;2023-02-04T01:53:05;102885.50;;;3.94;100.00
12969;BME280;6549;53.128;8.182;2023-02-04T01:56:15;102888.53;;;3.93;100.00
12969;BME280;6549;53.128;8.182;2023-02-04T01:59:17;102893.75;;;3.89;100.00
12969;BME280;6549;53.128;8.182;2023-02-04T02:02:47;102894.31;;;3.86;100.00
12969;BME280;6549;53.128;8.182;2023-02-04T02:05:51;102899.50;;;3.83;100.00
12969;BME280;6549;53.128;8.182;2023-02-04T02:08:53;102909.34;;;3.79;100.00
12969;BME280;6549;53.128;8.182;2023-02-04T02:11:53;102919.19;;;3.75;100.00
12969;BME280;6549;53.128;8.182;2023-02-04T02:14:54;102916.22;;;3.71;100.00
12969;BME280;6549;53.128;8.182;2023-02-04T02:17:55;102914.06;;;3.68;100.00
12969;BME280;6549;53.128;8.182;2023-02-04T02:20:56;102928.81;;;3.62;100.00
12969;BME280;6549;53.128;8.182;2023-02-04T02:24:03;102926.72;;;3.54;100.00
12969;BME280;6549;53.128;8.182;2023-02-04T02:27:20;102937.09;;;3.47;100.00
12969;BME280;6549;53.128;8.182;2023-02-04T02:30:21;102938.22;;;3.41;100.00
12969;BME280;6549;53.128;8.182;2023-02-04T02:33:22;102930.13;;;3.36;100.00
12969;BME280;6549;53.128;8.182;2023-02-04T02:36:22;102938.06;;;3.27;100.00
12969;BME280;6549;53.128;8.182;2023-02-04T02:39:23;102929.66;;;3.24;100.00
12969;BME280;6549;53.128;8.182;2023-02-04T02:42:24;102934.84;;;3.20;100.00
12969;BME280;6549;53.128;8.182;2023-02-04T02:45:26;102944.66;;;3.16;100.00
12969;BME280;6549;53.128;8.182;2023-02-04T02:48:27;102947.41;;;3.11;100.00
12969;BME280;6549;53.128;8.182;2023-02-04T02:51:27;102940.09;;;3.06;100.00
12969;BME280;6549;53.128;8.182;2023-02-04T02:54:29;102935.75;;;3.05;100.00
12969;BME280;6549;53.128;8.182;2023-02-04T02:57:30;102935.25;;;3.03;100.00
12969;BME280;6549;53.128;8.182;2023-02-04T03:00:30;102939.34;;;3.01;100.00
12969;BME280;6549;53.128;8.182;2023-02-04T03:03:34;102946.09;;;3.03;100.00
12969;BME280;6549;53.128;8.182;2023-02-04T03:06:35;102959.13;;;3.06;100.00
12969;BME280;6549;53.128;8.182;2023-02-04T03:09:35;102964.84;;;3.05;100.00
12969;BME280;6549;53.128;8.182;2023-02-04T03:12:36;102962.91;;;3.05;100.00
12969;BME280;6549;53.128;8.182;2023-02-04T03:15:37;102969.16;;;3.06;100.00
12969;BME280;6549;53.128;8.182;2023-02-04T03:18:37;102973.25;;;3.03;100.00
12969;BME280;6549;53.128;8.182;2023-02-04T03:21:38;102981.41;;;3.03;100.00
12969;BME280;6549;53.128;8.182;2023-02-04T03:24:38;103003.16;;;3.03;100.00
12969;BME280;6549;53.128;8.182;2023-02-04T03:27:39;103006.44;;;3.00;100.00
12969;BME280;6549;53.128;8.182;2023-02-04T03:30:39;103009.97;;;2.96;100.00
12969;BME280;6549;53.128;8.182;2023-02-04T03:33:39;103024.09;;;2.93;100.00
12969;BME280;6549;53.128;8.182;2023-02-04T03:36:41;103027.38;;;2.90;100.00
12969;BME280;6549;53.128;8.182;2023-02-04T03:39:42;103027.13;;;2.86;100.00
12969;BME280;6549;53.128;8.182;2023-02-04T03:42:42;103028.78;;;2.82;100.00
12969;BME280;6549;53.128;8.182;2023-02-04T03:45:43;103033.13;;;2.83;100.00
12969;BME280;6549;53.128;8.182;2023-02-04T03:48:43;103040.72;;;2.81;100.00
12969;BME280;6549;53.128;8.182;2023-02-04T03:51:43;103031.25;;;2.79;100.00
12969;BME280;6549;53.128;8.182;2023-02-04T03:54:44;103045.34;;;2.76;100.00
12969;BME280;6549;53.128;8.182;2023-02-04T03:57:44;103048.38;;;2.69;100.00
12969;BME280;6549;53.128;8.182;2023-02-04T04:00:45;103054.91;;;2.63;100.00
12969;BME280;6549;53.128;8.182;2023-02-04T04:03:45;103062.50;;;2.61;100.00
12969;BME280;6549;53.128;8.182;2023-02-04T04:06:45;103050.53;;;2.62;100.00
12969;BME280;6549;53.128;8.182;2023-02-04T04:09:45;103055.97;;;2.62;100.00
12969;BME280;6549;53.128;8.182;2023-02-04T04:12:46;103068.72;;;2.61;100.00
12969;BME280;6549;53.128;8.182;2023-02-04T04:15:46;103080.97;;;2.59;100.00
12969;BME280;6549;53.128;8.182;2023-02-04T04:18:46;103080.16;;;2.58;100.00
12969;BME280;6549;53.128;8.182;2023-02-04T04:21:47;103089.94;;;2.59;100.00
12969;BME280;6549;53.128;8.182;2023-02-04T04:24:47;103089.09;;;2.59;100.00
12969;BME280;6549;53.128;8.182;2023-02-04T04:27:47;103095.63;;;2.58;100.00
12969;BME280;6549;53.128;8.182;2023-02-04T04:30:48;103097.50;;;2.57;100.00
12969;BME280;6549;53.128;8.182;2023-02-04T04:33:48;103096.44;;;2.53;100.00
12969;BME280;6549;53.128;8.182;2023-02-04T04:36:48;103115.44;;;2.53;100.00
12969;BME280;6549;53.128;8.182;2023-02-04T04:39:49;103111.66;;;2.54;100.00
12969;BME280;6549;53.128;8.182;2023-02-04T04:42:49;103114.34;;;2.54;100.00
12969;BME280;6549;53.128;8.182;2023-02-04T04:45:49;103116.25;;;2.59;100.00
12969;BME280;6549;53.128;8.182;2023-02-04T04:48:49;103121.13;;;2.57;100.00
12969;BME280;6549;53.128;8.182;2023-02-04T04:51:50;103125.72;;;2.61;100.00
12969;BME280;6549;53.128;8.182;2023-02-04T04:54:50;103124.94;;;2.61;100.00
12969;BME280;6549;53.128;8.182;2023-02-04T04:57:50;103125.47;;;2.63;100.00
12969;BME280;6549;53.128;8.182;2023-02-04T05:00:51;103124.94;;;2.61;100.00
12969;BME280;6549;53.128;8.182;2023-02-04T05:03:51;103132.53;;;2.59;100.00
12969;BME280;6549;53.128;8.182;2023-02-04T05:06:51;103133.63;;;2.63;100.00
12969;BME280;6549;53.128;8.182;2023-02-04T05:09:52;103138.78;;;2.64;100.00
12969;BME280;6549;53.128;8.182;2023-02-04T05:12:52;103141.19;;;2.71;100.00
12969;BME280;6549;53.128;8.182;2023-02-04T05:15:52;103145.84;;;2.65;100.00
12969;BME280;6549;53.128;8.182;2023-02-04T05:18:53;103151.81;;;2.57;100.00
12969;BME280;6549;53.128;8.182;2023-02-04T05:21:53;103146.09;;;2.59;100.00
12969;BME280;6549;53.128;8.182;2023-02-04T05:24:53;103155.63;;;2.56;100.00
12969;BME280;6549;53.128;8.182;2023-02-04T05:27:54;103165.09;;;2.49;100.00
12969;BME280;6549;53.128;8.182;2023-02-04T05:30:54;103159.16;;;2.47;100.00
12969;BME280;6549;53.128;8.182;2023-02-04T05:33:54;103178.69;;;2.49;100.00
12969;BME280;6549;53.128;8.182;2023-02-04T05:36:55;103180.03;;;2.46;100.00
12969;BME280;6549;53.128;8.182;2023-02-04T05:39:56;103175.44;;;2.47;100.00
12969;BME280;6549;53.128;8.182;2023-02-04T05:42:56;103186.00;;;2.48;100.00
12969;BME280;6549;53.128;8.182;2023-02-04T05:45:57;103185.47;;;2.41;100.00
12969;BME280;6549;53.128;8.182;2023-02-04T05:48:57;103184.38;;;2.42;100.00
12969;BME280;6549;53.128;8.182;2023-02-04T05:51:57;103187.38;;;2.41;100.00
12969;BME280;6549;53.128;8.182;2023-02-04T05:54:58;103191.72;;;2.37;100.00
12969;BME280;6549;53.128;8.182;2023-02-04T05:57:58;103200.66;;;2.32;100.00
12969;BME280;6549;53.128;8.182;2023-02-04T06:00:59;103211.78;;;2.31;100.00
12969;BME280;6549;53.128;8.182;2023-02-04T06:04:03;103222.63;;;2.31;100.00
12969;BME280;6549;53.128;8.182;2023-02-04T06:07:03;103220.47;;;2.28;100.00
12969;BME280;6549;53.128;8.182;2023-02-04T06:10:04;103222.34;;;2.27;100.00
12969;BME280;6549;53.128;8.182;2023-02-04T06:13:04;103224.25;;;2.26;100.00
12969;BME280;6549;53.128;8.182;2023-02-04T06:16:04;103231.88;;;2.30;100.00
12969;BME280;6549;53.128;8.182;2023-02-04T06:19:05;103228.06;;;2.31;100.00
12969;BME280;6549;53.128;8.182;2023-02-04T06:22:05;103234.88;;;2.38;100.00
12969;BME280;6549;53.128;8.182;2023-02-04T06:25:06;103240.81;;;2.35;100.00
12969;BME280;6549;53.128;8.182;2023-02-04T06:28:06;103249.25;;;2.39;100.00
12969;BME280;6549;53.128;8.182;2023-02-04T06:31:06;103262.22;;;2.26;100.00
12969;BME280;6549;53.128;8.182;2023-02-04T06:34:08;103267.41;;;2.28;100.00
12969;BME280;6549;53.128;8.182;2023-02-04T06:37:08;103271.16;;;2.17;100.00
12969;BME280;6549;53.128;8.182;2023-02-04T06:40:09;103272.00;;;2.12;100.00
12969;BME280;6549;53.128;8.182;2023-02-04T06:43:10;103284.44;;;2.03;100.00
12969;BME280;6549;53.128;8.182;2023-02-04T06:46:10;103280.91;;;2.03;100.00
12969;BME280;6549;53.128;8.182;2023-02-04T06:49:10;103277.06;;;1.94;100.00
12969;BME280;6549;53.128;8.182;2023-02-04T06:52:11;103269.72;;;1.84;100.00
12969;BME280;6549;53.128;8.182;2023-02-04T06:55:12;103271.88;;;1.77;100.00
12969;BME280;6549;53.128;8.182;2023-02-04T06:58:12;103275.63;;;1.71;100.00
12969;BME280;6549;53.128;8.182;2023-02-04T07:01:13;103266.91;;;1.69;100.00
12969;BME280;6549;53.128;8.182;2023-02-04T07:04:13;103293.56;;;1.77;100.00
12969;BME280;6549;53.128;8.182;2023-02-04T07:07:14;103299.28;;;1.86;100.00
12969;BME280;6549;53.128;8.182;2023-02-04T07:10:16;103313.63;;;1.81;100.00
12969;BME280;6549;53.128;8.182;2023-02-04T07:13:16;103316.59;;;1.79;100.00
12969;BME280;6549;53.128;8.182;2023-02-04T07:16:16;103317.13;;;1.76;100.00
12969;BME280;6549;53.128;8.182;2023-02-04T07:19:16;103325.50;;;1.75;100.00
12969;BME280;6549;53.128;8.182;2023-02-04T07:22:17;103335.00;;;1.77;100.00
12969;BME280;6549;53.128;8.182;2023-02-04T07:25:17;103333.69;;;1.80;100.00
12969;BME280;6549;53.128;8.182;2023-02-04T07:28:19;103351.03;;;1.84;100.00
12969;BME280;6549;53.128;8.182;2023-02-04T07:31:19;103352.41;;;1.87;100.00
12969;BME280;6549;53.128;8.182;2023-02-04T07:34:20;103354.84;;;1.88;100.00
12969;BME280;6549;53.128;8.182;2023-02-04T07:37:20;103353.78;;;1.89;100.00
12969;BME280;6549;53.128;8.182;2023-02-04T07:40:21;103347.53;;;1.89;100.00
12969;BME280;6549;53.128;8.182;2023-02-04T07:43:22;103351.13;;;2.04;100.00
12969;BME280;6549;53.128;8.182;2023-02-04T07:46:22;103353.34;;;2.07;100.00
12969;BME280;6549;53.128;8.182;2023-02-04T07:49:22;103352.81;;;2.15;100.00
12969;BME280;6549;53.128;8.182;2023-02-04T07:52:23;103351.44;;;2.08;100.00
12969;BME280;6549;53.128;8.182;2023-02-04T07:55:23;103355.50;;;2.10;100.00
12969;BME280;6549;53.128;8.182;2023-02-04T07:58:24;103360.13;;;2.10;100.00
12969;BME280;6549;53.128;8.182;2023-02-04T08:01:24;103360.94;;;2.10;100.00
12969;BME280;6549;53.128;8.182;2023-02-04T08:04:24;103368.28;;;2.15;100.00
12969;BME280;6549;53.128;8.182;2023-02-04T08:07:25;103376.69;;;2.18;100.00
12969;BME280;6549;53.128;8.182;2023-02-04T08:10:25;103387.78;;;2.17;100.00
12969;BME280;6549;53.128;8.182;2023-02-04T08:13:25;103391.06;;;2.19;100.00
12969;BME280;6549;53.128;8.182;2023-02-04T08:16:26;103396.00;;;2.27;100.00
12969;BME280;6549;53.128;8.182;2023-02-04T08:19:26;103398.47;;;2.34;100.00
12969;BME280;6549;53.128;8.182;2023-02-04T08:22:26;103395.19;;;2.32;100.00
12969;BME280;6549;53.128;8.182;2023-02-04T08:25:27;103407.19;;;2.46;100.00
12969;BME280;6549;53.128;8.182;2023-02-04T08:28:28;103406.97;;;2.62;100.00
12969;BME280;6549;53.128;8.182;2023-02-04T08:31:29;103416.81;;;2.79;100.00
12969;BME280;6549;53.128;8.182;2023-02-04T08:34:29;103415.47;;;2.86;100.00
12969;BME280;6549;53.128;8.182;2023-02-04T08:37:30;103426.88;;;2.93;100.00
12969;BME280;6549;53.128;8.182;2023-02-04T08:40:30;103420.09;;;3.01;100.00
12969;BME280;6549;53.128;8.182;2023-02-04T08:43:30;103436.66;;;3.14;100.00
12969;BME280;6549;53.128;8.182;2023-02-04T08:46:31;103437.78;;;3.24;100.00
12969;BME280;6549;53.128;8.182;2023-02-04T08:49:31;103445.13;;;3.38;100.00
12969;BME280;6549;53.128;8.182;2023-02-04T08:52:32;103459.53;;;3.59;100.00
12969;BME280;6549;53.128;8.182;2023-02-04T08:55:32;103453.53;;;3.72;100.00
12969;BME280;6549;53.128;8.182;2023-02-04T08:58:32;103452.72;;;3.87;100.00
12969;BME280;6549;53.128;8.182;2023-02-04T09:01:33;103458.16;;;3.92;100.00
12969;BME280;6549;53.128;8.182;2023-02-04T09:04:33;103450.81;;;3.87;100.00
12969;BME280;6549;53.128;8.182;2023-02-04T09:07:33;103455.19;;;3.78;100.00
12969;BME280;6549;53.128;8.182;2023-02-04T09:10:34;103455.69;;;3.85;100.00
12969;BME280;6549;53.128;8.182;2023-02-04T09:13:34;103461.31;;;4.29;100.00
12969;BME280;6549;53.128;8.182;2023-02-04T09:16:34;103462.94;;;4.35;100.00
12969;BME280;6549;53.128;8.182;2023-02-04T09:19:35;103471.41;;;4.24;100.00
12969;BME280;6549;53.128;8.182;2023-02-04T09:22:35;103466.94;;;4.53;100.00
12969;BME280;6549;53.128;8.182;2023-02-04T09:25:38;103473.69;;;4.66;100.00
12969;BME280;6549;53.128;8.182;2023-02-04T09:28:38;103470.47;;;5.13;100.00
12969;BME280;6549;53.128;8.182;2023-02-04T09:31:39;103477.81;;;6.14;100.00
12969;BME280;6549;53.128;8.182;2023-02-04T09:34:39;103478.06;;;6.41;100.00
12969;BME280;6549;53.128;8.182;2023-02-04T09:37:39;103473.91;;;6.20;100.00
12969;BME280;6549;53.128;8.182;2023-02-04T09:40:42;103467.19;;;6.12;100.00
12969;BME280;6549;53.128;8.182;2023-02-04T09:43:43;103478.50;;;6.24;100.00
12969;BME280;6549;53.128;8.182;2023-02-04T09:46:48;103484.22;;;6.28;100.00
12969;BME280;6549;53.128;8.182;2023-02-04T09:49:49;103485.16;;;6.85;100.00
12969;BME280;6549;53.128;8.182;2023-02-04T09:52:50;103498.75;;;7.08;100.00
12969;BME280;6549;53.128;8.182;2023-02-04T09:55:51;103498.84;;;7.03;100.00
12969;BME280;6549;53.128;8.182;2023-02-04T09:58:51;103506.72;;;6.67;100.00
12969;BME280;6549;53.128;8.182;2023-02-04T10:02:04;103511.09;;;6.87;100.00
12969;BME280;6549;53.128;8.182;2023-02-04T10:05:15;103515.50;;;7.26;100.00
12969;BME280;6549;53.128;8.182;2023-02-04T10:08:18;103525.44;;;6.98;100.00
12969;BME280;6549;53.128;8.182;2023-02-04T10:11:20;103514.66;;;6.40;100.00
12969;BME280;6549;53.128;8.182;2023-02-04T10:14:21;103525.31;;;6.42;100.00
12969;BME280;6549;53.128;8.182;2023-02-04T10:17:22;103516.81;;;7.09;100.00
12969;BME280;6549;53.128;8.182;2023-02-04T10:20:24;103516.59;;;7.06;100.00
12969;BME280;6549;53.128;8.182;2023-02-04T10:23:24;103513.22;;;6.48;100.00
12969;BME280;6549;53.128;8.182;2023-02-04T10:26:27;103509.66;;;6.23;100.00
12969;BME280;6549;53.128;8.182;2023-02-04T10:29:28;103497.31;;;5.68;100.00
12969;BME280;6549;53.128;8.182;2023-02-04T10:32:30;103513.28;;;5.51;100.00
12969;BME280;6549;53.128;8.182;2023-02-04T10:35:31;103511.44;;;5.75;100.00
12969;BME280;6549;53.128;8.182;2023-02-04T10:38:31;103510.72;;;5.99;100.00
12969;BME280;6549;53.128;8.182;2023-02-04T10:41:32;103512.97;;;5.92;100.00
12969;BME280;6549;53.128;8.182;2023-02-04T10:44:34;103516.00;;;5.85;100.00
12969;BME280;6549;53.128;8.182;2023-02-04T10:47:35;103518.34;;;6.02;100.00
12969;BME280;6549;53.128;8.182;2023-02-04T10:50:35;103521.63;;;5.99;100.00
12969;BME280;6549;53.128;8.182;2023-02-04T10:53:36;103518.56;;;6.34;100.00
12969;BME280;6549;53.128;8.182;2023-02-04T11:00:19;103510.94;;;6.31;100.00
12969;BME280;6549;53.128;8.182;2023-02-04T11:06:22;103509.41;;;6.20;100.00
12969;BME280;6549;53.128;8.182;2023-02-04T11:09:23;103511.28;;;6.24;100.00
12969;BME280;6549;53.128;8.182;2023-02-04T11:15:46;103524.75;;;6.87;100.00
12969;BME280;6549;53.128;8.182;2023-02-04T11:18:50;103529.09;;;7.12;100.00
12969;BME280;6549;53.128;8.182;2023-02-04T11:21:50;103535.66;;;7.11;100.00
12969;BME280;6549;53.128;8.182;2023-02-04T11:24:51;103525.44;;;7.35;100.00
12969;BME280;6549;53.128;8.182;2023-02-04T11:27:51;103534.69;;;7.58;100.00
12969;BME280;6549;53.128;8.182;2023-02-04T11:30:59;103527.63;;;7.71;100.00
12969;BME280;6549;53.128;8.182;2023-02-04T11:37:35;103521.59;;;7.74;100.00
12969;BME280;6549;53.128;8.182;2023-02-04T11:40:37;103527.22;;;7.45;100.00
12969;BME280;6549;53.128;8.182;2023-02-04T11:43:38;103520.50;;;7.37;100.00
12969;BME280;6549;53.128;8.182;2023-02-04T11:46:38;103519.69;;;7.55;100.00
12969;BME280;6549;53.128;8.182;2023-02-04T11:49:39;103515.16;;;7.64;100.00
12969;BME280;6549;53.128;8.182;2023-02-04T11:52:39;103520.69;;;7.78;100.00
12969;BME280;6549;53.128;8.182;2023-02-04T11:55:45;103525.84;;;7.80;100.00
12969;BME280;6549;53.128;8.182;2023-02-04T11:58:46;103505.38;;;7.77;100.00
12969;BME280;6549;53.128;8.182;2023-02-04T12:01:49;103514.19;;;7.74;100.00
12969;BME280;6549;53.128;8.182;2023-02-04T12:04:57;103520.56;;;7.70;100.00
12969;BME280;6549;53.128;8.182;2023-02-04T12:11:25;103524.56;;;7.02;100.00
12969;BME280;6549;53.128;8.182;2023-02-04T12:14:34;103529.28;;;6.97;100.00
12969;BME280;6549;53.128;8.182;2023-02-04T12:17:35;103533.88;;;6.77;100.00
12969;BME280;6549;53.128;8.182;2023-02-04T12:20:36;103523.03;;;6.72;100.00
12969;BME280;6549;53.128;8.182;2023-02-04T12:23:36;103522.19;;;6.96;100.00
12969;BME280;6549;53.128;8.182;2023-02-04T12:26:38;103514.38;;;7.27;100.00
12969;BME280;6549;53.128;8.182;2023-02-04T12:29:38;103520.38;;;7.47;100.00
12969;BME280;6549;53.128;8.182;2023-02-04T12:32:38;103523.38;;;7.27;100.00
12969;BME280;6549;53.128;8.182;2023-02-04T12:35:39;103524.44;;;7.12;100.00
12969;BME280;6549;53.128;8.182;2023-02-04T12:38:39;103529.38;;;7.10;100.00
12969;BME280;6549;53.128;8.182;2023-02-04T12:41:39;103531.97;;;7.20;100.00
12969;BME280;6549;53.128;8.182;2023-02-04T12:44:40;103544.25;;;7.42;100.00
12969;BME280;6549;53.128;8.182;2023-02-04T12:47:41;103540.53;;;7.51;100.00
12969;BME280;6549;53.128;8.182;2023-02-04T12:50:41;103537.22;;;7.36;100.00
12969;BME280;6549;53.128;8.182;2023-02-04T12:53:41;103532.13;;;7.48;100.00
12969;BME280;6549;53.128;8.182;2023-02-04T12:56:41;103537.75;;;7.70;100.00
12969;BME280;6549;53.128;8.182;2023-02-04T12:59:42;103550.06;;;7.73;100.00
12969;BME280;6549;53.128;8.182;2023-02-04T13:02:43;103536.69;;;7.52;100.00
12969;BME280;6549;53.128;8.182;2023-02-04T13:05:43;103544.38;;;7.32;100.00
12969;BME280;6549;53.128;8.182;2023-02-04T13:08:43;103543.38;;;7.04;100.00
12969;BME280;6549;53.128;8.182;2023-02-04T13:11:44;103546.72;;;7.01;100.00
12969;BME280;6549;53.128;8.182;2023-02-04T13:14:44;103546.94;;;6.86;100.00
12969;BME280;6549;53.128;8.182;2023-02-04T13:17:45;103534.41;;;6.80;100.00
12969;BME280;6549;53.128;8.182;2023-02-04T13:20:45;103540.53;;;6.71;100.00
12969;BME280;6549;53.128;8.182;2023-02-04T13:23:45;103532.34;;;6.48;100.00
12969;BME280;6549;53.128;8.182;2023-02-04T13:26:46;103524.06;;;6.29;100.00
12969;BME280;6549;53.128;8.182;2023-02-04T13:29:46;103530.50;;;6.14;100.00
12969;BME280;6549;53.128;8.182;2023-02-04T13:32:46;103527.56;;;6.35;100.00
12969;BME280;6549;53.128;8.182;2023-02-04T13:35:47;103526.28;;;6.51;100.00
12969;BME280;6549;53.128;8.182;2023-02-04T13:38:47;103526.66;;;6.68;100.00
12969;BME280;6549;53.128;8.182;2023-02-04T13:41:48;103522.38;;;6.81;100.00
12969;BME280;6549;53.128;8.182;2023-02-04T13:44:48;103521.47;;;6.66;100.00
12969;BME280;6549;53.128;8.182;2023-02-04T13:47:48;103527.38;;;6.73;100.00
12969;BME280;6549;53.128;8.182;2023-02-04T13:50:49;103522.22;;;6.72;100.00
12969;BME280;6549;53.128;8.182;2023-02-04T13:53:52;103524.41;;;6.46;100.00
12969;BME280;6549;53.128;8.182;2023-02-04T13:56:52;103530.31;;;6.58;100.00
12969;BME280;6549;53.128;8.182;2023-02-04T13:59:53;103535.25;;;6.56;100.00
12969;BME280;6549;53.128;8.182;2023-02-04T14:02:53;103531.47;;;6.52;100.00
12969;BME280;6549;53.128;8.182;2023-02-04T14:05:55;103532.91;;;6.45;100.00
12969;BME280;6549;53.128;8.182;2023-02-04T14:08:55;103545.00;;;6.39;100.00
12969;BME280;6549;53.128;8.182;2023-02-04T14:11:56;103539.88;;;6.56;100.00
12969;BME280;6549;53.128;8.182;2023-02-04T14:14:56;103540.56;;;6.43;100.00
12969;BME280;6549;53.128;8.182;2023-02-04T14:17:56;103555.00;;;6.48;100.00
12969;BME280;6549;53.128;8.182;2023-02-04T14:20:57;103554.00;;;6.39;100.00
12969;BME280;6549;53.128;8.182;2023-02-04T14:23:57;103570.66;;;6.38;100.00
12969;BME280;6549;53.128;8.182;2023-02-04T14:26:57;103560.88;;;6.60;100.00
12969;BME280;6549;53.128;8.182;2023-02-04T14:29:58;103553.03;;;6.54;100.00
12969;BME280;6549;53.128;8.182;2023-02-04T14:32:58;103556.47;;;6.41;100.00
12969;BME280;6549;53.128;8.182;2023-02-04T14:35:59;103550.69;;;6.42;100.00
12969;BME280;6549;53.128;8.182;2023-02-04T14:38:59;103571.06;;;6.26;100.00
12969;BME280;6549;53.128;8.182;2023-02-04T14:42:00;103568.34;;;6.26;100.00
12969;BME280;6549;53.128;8.182;2023-02-04T14:45:04;103562.59;;;6.27;100.00
12969;BME280;6549;53.128;8.182;2023-02-04T14:48:05;103561.47;;;6.28;100.00
12969;BME280;6549;53.128;8.182;2023-02-04T14:51:06;103574.03;;;6.29;100.00
12969;BME280;6549;53.128;8.182;2023-02-04T14:54:06;103563.69;;;6.26;100.00
12969;BME280;6549;53.128;8.182;2023-02-04T14:57:06;103559.91;;;6.22;100.00
12969;BME280;6549;53.128;8.182;2023-02-04T15:00:11;103555.50;;;6.26;100.00
12969;BME280;6549;53.128;8.182;2023-02-04T15:03:11;103554.50;;;6.17;100.00
12969;BME280;6549;53.128;8.182;2023-02-04T15:06:11;103569.00;;;6.13;100.00
12969;BME280;6549;53.128;8.182;2023-02-04T15:09:12;103565.03;;;6.00;100.00
12969;BME280;6549;53.128;8.182;2023-02-04T15:12:12;103566.19;;;5.89;100.00
12969;BME280;6549;53.128;8.182;2023-02-04T15:15:13;103572.97;;;5.97;100.00
12969;BME280;6549;53.128;8.182;2023-02-04T15:18:13;103577.00;;;6.04;100.00
12969;BME280;6549;53.128;8.182;2023-02-04T15:21:13;103570.72;;;6.04;100.00
12969;BME280;6549;53.128;8.182;2023-02-04T15:24:14;103569.47;;;5.86;100.00
12969;BME280;6549;53.128;8.182;2023-02-04T15:27:14;103571.63;;;5.94;100.00
12969;BME280;6549;53.128;8.182;2023-02-04T15:30:15;103565.91;;;5.91;100.00
12969;BME280;6549;53.128;8.182;2023-02-04T15:33:15;103571.38;;;5.91;100.00
12969;BME280;6549;53.128;8.182;2023-02-04T15:36:16;103569.09;;;6.03;100.00
12969;BME280;6549;53.128;8.182;2023-02-04T15:39:16;103565.69;;;5.87;100.00
12969;BME280;6549;53.128;8.182;2023-02-04T15:42:17;103561.31;;;5.81;100.00
12969;BME280;6549;53.128;8.182;2023-02-04T15:45:17;103561.13;;;5.72;100.00
12969;BME280;6549;53.128;8.182;2023-02-04T15:48:17;103564.19;;;5.66;100.00
12969;BME280;6549;53.128;8.182;2023-02-04T15:51:19;103561.50;;;5.56;100.00
12969;BME280;6549;53.128;8.182;2023-02-04T15:54:19;103570.13;;;5.29;100.00
12969;BME280;6549;53.128;8.182;2023-02-04T15:57:19;103569.28;;;5.33;100.00
12969;BME280;6549;53.128;8.182;2023-02-04T16:00:20;103558.63;;;5.37;100.00
12969;BME280;6549;53.128;8.182;2023-02-04T16:03:20;103563.91;;;5.18;100.00
12969;BME280;6549;53.128;8.182;2023-02-04T16:06:22;103559.78;;;5.31;100.00
12969;BME280;6549;53.128;8.182;2023-02-04T16:09:22;103556.56;;;5.14;100.00
12969;BME280;6549;53.128;8.182;2023-02-04T16:12:22;103562.94;;;4.94;100.00
12969;BME280;6549;53.128;8.182;2023-02-04T16:15:23;103568.44;;;4.84;100.00